Time;durP1;ratioP1;P1;durP2;ratioP2;P2;SDS_P1;SDS_P2;PMS_P1;PMS_P2;Temp;Humidity;BMP_temperature;BMP_pressure;BME280_temperature;BME280_humidity;BME280_pressure;Samples;Min_cycle;Max_cycle;Signal;HPM_P1;HPM_P2
2021/10/19 00:01:34;;;;;;;5.65;4.45;;;;;;;14.53;64.48;101230.31;5039190;28;20032;-70
2021/10/19 00:04:00;;;;;;;4.60;4.10;;;;;;;14.48;64.71;101225.81;5039533;28;20029;-71
2021/10/19 00:06:28;;;;;;;4.85;3.58;;;;;;;14.42;65.03;101224.44;5039552;28;20021;-70
2021/10/19 00:08:54;;;;;;;3.55;3.25;;;;;;;14.36;64.75;101232.31;5039486;28;20025;-71
2021/10/19 00:11:20;;;;;;;3.30;3.10;;;;;;;14.38;65.19;101227.19;5039166;28;20482;-71
2021/10/19 00:13:48;;;;;;;3.92;3.53;;;;;;;14.29;65.66;101226.53;5039329;28;20127;-71
2021/10/19 00:16:16;;;;;;;4.15;3.85;;;;;;;14.27;65.17;101225.28;5019848;28;20053;-71
2021/10/19 00:18:42;;;;;;;7.07;3.70;;;;;;;14.26;65.15;101234.84;5019744;28;20080;-70
2021/10/19 00:21:08;;;;;;;4.00;3.65;;;;;;;14.21;65.65;101221.13;5019087;28;20467;-71
2021/10/19 00:23:34;;;;;;;4.40;4.00;;;;;;;14.19;65.27;101226.28;5019061;28;20025;-70
2021/10/19 00:25:59;;;;;;;4.97;3.65;;;;;;;14.17;65.34;101226.66;5019700;28;20352;-71
2021/10/19 00:28:27;;;;;;;4.03;3.40;;;;;;;14.10;64.94;101230.06;5019050;28;20041;-70
2021/10/19 00:30:53;;;;;;;3.65;3.33;;;;;;;14.11;64.94;101223.31;5018993;28;20470;-71
2021/10/19 00:33:21;;;;;;;3.70;3.15;;;;;;;14.04;65.54;101223.13;5019251;28;20036;-70
2021/10/19 00:35:47;;;;;;;3.70;3.45;;;;;;;14.07;65.83;101230.81;5019508;28;20029;-71
2021/10/19 00:38:15;;;;;;;4.03;3.63;;;;;;;14.00;65.77;101227.81;5018876;28;20502;-70
2021/10/19 00:40:41;;;;;;;4.07;3.67;;;;;;;14.05;65.97;101229.53;5018841;28;20037;-71
2021/10/19 00:43:06;;;;;;;4.10;3.33;;;;;;;13.95;65.70;101218.88;5018751;28;20049;-70
2021/10/19 00:45:34;;;;;;;4.22;3.40;;;;;;;14.05;65.05;101221.94;5018744;28;20067;-71
2021/10/19 00:48:00;;;;;;;3.65;3.35;;;;;;;13.99;65.07;101223.38;5019077;28;20048;-70
2021/10/19 00:50:29;;;;;;;4.13;3.10;;;;;;;13.97;65.23;101220.16;5018958;28;20379;-70
2021/10/19 00:52:56;;;;;;;3.75;3.45;;;;;;;13.98;64.49;101230.16;5019181;28;20030;-70
2021/10/19 00:55:23;;;;;;;3.35;2.72;;;;;;;13.94;64.57;101217.25;5017838;28;20029;-71
2021/10/19 00:57:52;;;;;;;3.00;2.75;;;;;;;13.90;64.60;101222.75;5018885;28;20590;-70
2021/10/19 01:00:20;;;;;;;3.08;2.85;;;;;;;13.85;65.23;101215.47;5018567;28;20117;-70
2021/10/19 01:02:48;;;;;;;4.38;2.97;;;;;;;13.82;64.85;101223.75;5018477;28;20033;-70
2021/10/19 01:05:14;;;;;;;3.72;2.90;;;;;;;13.80;65.04;101214.91;5019003;28;20378;-71
2021/10/19 01:07:42;;;;;;;4.40;3.13;;;;;;;13.76;65.26;101219.59;5018451;28;20029;-70
2021/10/19 01:10:10;;;;;;;3.35;2.85;;;;;;;13.76;65.49;101216.81;5018994;28;20069;-70
2021/10/19 01:12:41;;;;;;;3.40;3.10;;;;;;;13.80;65.59;101217.72;5018292;28;20033;-71
2021/10/19 01:15:30;;;;;;;3.88;3.50;;;;;;;13.81;65.79;101224.94;5034110;28;20053;-70
2021/10/19 01:17:56;;;;;;;3.10;2.90;;;;;;;13.76;65.04;101211.22;5055636;28;20487;-71
2021/10/19 01:20:24;;;;;;;3.78;3.45;;;;;;;13.73;65.58;101211.91;5054609;28;20119;-71
2021/10/19 01:22:50;;;;;;;3.17;2.92;;;;;;;13.76;65.59;101211.22;5055491;28;20432;-71
2021/10/19 01:25:21;;;;;;;3.20;2.90;;;;;;;13.71;65.34;101206.69;5054748;28;20032;-70
2021/10/19 01:27:53;;;;;;;2.92;2.72;;;;;;;13.71;65.67;101214.28;5054671;28;20052;-71
2021/10/19 01:30:19;;;;;;;3.40;3.10;;;;;;;13.71;65.72;101225.47;5054334;28;20021;-71
2021/10/19 01:32:48;;;;;;;3.78;3.40;;;;;;;13.70;65.17;101204.25;5054621;28;20379;-70
2021/10/19 01:35:14;;;;;;;3.58;3.28;;;;;;;13.74;64.98;101216.31;5055338;28;20032;-71
2021/10/19 01:37:41;;;;;;;3.08;2.88;;;;;;;13.69;64.97;101208.19;5054363;28;20174;-71
2021/10/19 01:40:09;;;;;;;3.50;3.20;;;;;;;13.69;65.28;101203.44;5054831;28;20474;-70
2021/10/19 01:42:38;;;;;;;3.55;3.28;;;;;;;13.67;65.20;101207.75;5054436;28;20029;-70
2021/10/19 01:45:12;;;;;;;4.15;3.78;;;;;;;13.66;64.70;101208.94;5054186;28;20037;-70
2021/10/19 01:47:38;;;;;;;3.55;3.25;;;;;;;13.63;65.03;101213.25;5054510;28;20544;-70
2021/10/19 01:50:04;;;;;;;3.00;2.63;;;;;;;13.66;64.76;101211.75;5054422;28;20064;-70
2021/10/19 01:52:30;;;;;;;4.13;3.42;;;;;;;13.55;65.09;101206.66;5054323;28;20051;-70
2021/10/19 01:54:55;;;;;;;3.35;2.88;;;;;;;13.49;65.41;101207.28;5054292;28;20028;-70
2021/10/19 01:57:23;;;;;;;3.42;3.13;;;;;;;13.47;64.86;101204.03;5054281;28;20079;-70
2021/10/19 01:59:49;;;;;;;3.28;2.90;;;;;;;13.48;65.30;101206.47;5054536;28;20033;-70
2021/10/19 02:02:14;;;;;;;4.43;2.72;;;;;;;13.46;65.35;101203.22;5053926;28;20513;-71
2021/10/19 02:04:40;;;;;;;4.60;3.13;;;;;;;13.46;65.19;101197.63;5053939;28;20037;-71
2021/10/19 02:07:08;;;;;;;2.88;2.67;;;;;;;13.42;65.29;101213.47;5053257;28;20032;-70
2021/10/19 02:09:34;;;;;;;3.85;3.20;;;;;;;13.41;65.12;101216.63;5055301;28;20029;-70
2021/10/19 02:11:59;;;;;;;2.90;2.70;;;;;;;13.44;64.97;101213.16;5053729;28;20122;-70
2021/10/19 02:14:25;;;;;;;3.63;3.30;;;;;;;13.42;65.21;101213.47;5053292;28;20106;-71
2021/10/19 02:16:51;;;;;;;3.53;3.22;;;;;;;13.31;65.33;101213.19;5053668;28;20067;-70
2021/10/19 02:19:17;;;;;;;5.35;4.82;;;;;;;13.33;65.18;101216.44;5053589;28;20071;-70
2021/10/19 02:21:43;;;;;;;14.00;7.25;;;;;;;13.30;65.16;101210.75;5053715;28;20028;-70
2021/10/19 02:24:12;;;;;;;25.83;18.00;;;;;;;13.32;65.40;101211.22;5054064;28;20370;-71
2021/10/19 02:26:37;;;;;;;30.75;24.33;;;;;;;13.28;65.46;101218.69;5053444;28;20028;-71
2021/10/19 02:29:03;;;;;;;27.30;20.85;;;;;;;13.31;65.79;101217.97;5053944;28;20036;-70
2021/10/19 02:31:28;;;;;;;8.98;8.07;;;;;;;13.34;65.14;101220.06;5054419;28;20060;-70
2021/10/19 02:33:57;;;;;;;5.93;5.43;;;;;;;13.37;64.43;101227.75;5053633;28;20025;-70
2021/10/19 02:36:22;;;;;;;6.90;5.85;;;;;;;13.29;64.61;101225.91;5053710;28;20386;-71
2021/10/19 02:38:48;;;;;;;5.00;4.60;;;;;;;13.19;65.75;101223.59;5053394;28;20040;-70
2021/10/19 02:41:14;;;;;;;4.82;4.30;;;;;;;13.19;65.48;101226.38;5053234;28;20067;-70
2021/10/19 02:43:39;;;;;;;4.85;4.38;;;;;;;13.19;65.61;101232.78;5053844;28;20037;-71
2021/10/19 02:46:05;;;;;;;4.07;3.60;;;;;;;13.15;65.27;101219.88;5053088;28;20087;-71
2021/10/19 02:48:33;;;;;;;4.50;4.10;;;;;;;13.09;65.48;101228.50;5053249;28;20040;-70
2021/10/19 02:50:59;;;;;;;3.70;3.40;;;;;;;13.15;65.51;101231.03;5052979;28;20028;-70
2021/10/19 02:53:28;;;;;;;5.00;3.75;;;;;;;13.13;64.94;101225.00;5053450;28;20037;-70
2021/10/19 02:55:53;;;;;;;3.90;3.60;;;;;;;13.16;65.81;101227.09;5052883;28;20025;-71
2021/10/19 02:58:19;;;;;;;4.25;3.95;;;;;;;13.15;65.95;101225.44;5052839;28;20474;-71
2021/10/19 03:00:45;;;;;;;3.53;3.22;;;;;;;13.15;65.91;101237.44;5052941;28;20051;-71
2021/10/19 03:03:10;;;;;;;6.45;3.70;;;;;;;13.11;65.98;101225.38;5052804;28;20474;-70
2021/10/19 03:05:36;;;;;;;3.83;3.53;;;;;;;13.14;65.63;101235.00;5053034;28;20033;-70
2021/10/19 03:08:01;;;;;;;4.05;3.33;;;;;;;13.01;65.58;101207.13;5052698;28;20100;-70
2021/10/19 03:10:27;;;;;;;3.40;3.10;;;;;;;13.22;65.06;101242.47;5052704;28;20029;-70
2021/10/19 03:12:53;;;;;;;4.05;3.17;;;;;;;13.21;64.32;101243.59;5052636;28;20033;-71
2021/10/19 03:15:20;;;;;;;3.53;3.22;;;;;;;13.15;65.09;101248.63;5033096;28;20084;-71
2021/10/19 03:17:48;;;;;;;3.58;3.28;;;;;;;13.12;64.70;101249.34;5015518;28;20034;-71
2021/10/19 03:20:14;;;;;;;4.55;4.15;;;;;;;13.15;65.30;101253.41;5016438;28;20076;-71
2021/10/19 03:22:40;;;;;;;4.75;4.00;;;;;;;13.14;65.21;101251.78;5016054;28;20510;-71
2021/10/19 03:25:06;;;;;;;5.10;4.07;;;;;;;13.12;65.42;101252.13;5016325;28;20091;-71
2021/10/19 03:27:35;;;;;;;3.85;3.50;;;;;;;13.13;65.17;101255.75;5016433;28;20379;-71
2021/10/19 03:30:03;;;;;;;3.78;3.47;;;;;;;13.13;65.54;101255.75;5016077;28;20080;-71
2021/10/19 03:32:28;;;;;;;4.15;3.78;;;;;;;13.10;65.69;101251.66;5016000;28;20034;-71
2021/10/19 03:34:58;;;;;;;4.07;3.67;;;;;;;13.06;65.63;101256.34;5016593;28;20041;-71
2021/10/19 03:37:24;;;;;;;4.53;3.22;;;;;;;13.11;65.58;101259.72;5015979;28;20033;-71
2021/10/19 03:39:49;;;;;;;4.40;3.83;;;;;;;13.14;65.62;101260.97;5015948;28;20121;-71
2021/10/19 03:42:15;;;;;;;7.85;5.03;;;;;;;13.14;65.11;101262.94;5016120;28;20025;-71
2021/10/19 03:44:44;;;;;;;5.90;5.05;;;;;;;13.10;65.50;101266.47;5015343;28;20446;-71
2021/10/19 03:47:10;;;;;;;5.68;5.18;;;;;;;13.14;65.73;101262.94;5015934;28;20502;-71
2021/10/19 03:49:38;;;;;;;6.25;5.65;;;;;;;13.13;66.05;101266.91;5015893;28;20030;-71
2021/10/19 03:52:07;;;;;;;5.32;4.82;;;;;;;13.16;65.31;101266.22;5015820;28;20061;-71
2021/10/19 03:54:33;;;;;;;6.00;4.22;;;;;;;13.09;65.12;101272.38;5016108;28;20115;-71
2021/10/19 03:56:58;;;;;;;8.40;4.43;;;;;;;13.04;66.40;101276.25;5015842;28;20418;-71
2021/10/19 03:59:24;;;;;;;4.28;3.47;;;;;;;13.16;64.83;101277.41;5015741;28;20038;-72
2021/10/19 04:01:52;;;;;;;4.00;3.70;;;;;;;13.04;65.81;101270.66;5015683;28;20075;-71
2021/10/19 04:04:19;;;;;;;3.63;3.30;;;;;;;13.02;66.03;101278.59;5016067;28;20131;-71
2021/10/19 04:06:47;;;;;;;3.67;3.38;;;;;;;13.04;65.37;101276.25;5016255;28;20029;-71
2021/10/19 04:09:13;;;;;;;3.63;3.35;;;;;;;12.97;66.00;101278.81;5015720;28;20033;-72
2021/10/19 04:11:39;;;;;;;3.50;3.20;;;;;;;12.97;66.14;101281.63;5016246;28;20109;-71
2021/10/19 04:14:04;;;;;;;4.20;3.22;;;;;;;12.96;65.62;101273.59;5016286;28;20488;-70
2021/10/19 04:16:30;;;;;;;6.40;3.40;;;;;;;12.92;65.96;101276.28;5035938;28;20112;-71
2021/10/19 04:18:57;;;;;;;3.75;3.40;;;;;;;12.91;65.71;101283.03;5035223;28;20045;-71
2021/10/19 04:21:25;;;;;;;3.47;3.17;;;;;;;12.87;65.60;101282.09;5035070;28;20029;-71
2021/10/19 04:23:50;;;;;;;3.58;3.20;;;;;;;12.90;65.95;101280.59;5035619;28;20029;-71
2021/10/19 04:26:16;;;;;;;3.22;2.92;;;;;;;12.87;66.17;101284.91;5035357;28;20029;-71
2021/10/19 04:28:44;;;;;;;3.95;3.13;;;;;;;12.87;65.91;101287.69;5035591;28;20059;-71
2021/10/19 04:31:10;;;;;;;4.93;3.13;;;;;;;12.80;65.65;101287.47;5039771;28;20509;-71
2021/10/19 04:33:35;;;;;;;3.60;3.30;;;;;;;12.84;65.80;101289.22;5039298;28;20032;-71
2021/10/19 04:36:04;;;;;;;3.22;2.92;;;;;;;12.82;65.82;101296.31;5038999;28;20025;-71
2021/10/19 04:38:34;;;;;;;3.40;3.10;;;;;;;12.76;66.17;101290.16;5039144;28;20059;-71
2021/10/19 04:41:00;;;;;;;2.85;2.65;;;;;;;12.70;66.32;101293.53;5039042;28;20443;-71
2021/10/19 04:43:25;;;;;;;2.90;2.60;;;;;;;12.68;66.22;101291.09;5038787;28;20072;-71
2021/10/19 04:45:53;;;;;;;3.38;3.08;;;;;;;12.71;66.45;101292.38;5039268;28;20028;-71
2021/10/19 04:48:20;;;;;;;3.88;2.97;;;;;;;12.73;66.08;101302.03;5038656;28;20029;-71
2021/10/19 04:50:46;;;;;;;3.33;3.13;;;;;;;12.75;66.00;101296.91;5056814;28;20029;-71
2021/10/19 04:53:11;;;;;;;3.20;2.95;;;;;;;12.82;65.60;101299.09;5038804;28;20390;-71
2021/10/19 04:55:40;;;;;;;3.58;3.10;;;;;;;12.73;66.00;101288.06;5038571;28;20021;-71
2021/10/19 04:58:08;;;;;;;3.22;2.92;;;;;;;12.79;66.30;101303.44;5038496;28;20139;-71
2021/10/19 05:00:34;;;;;;;2.97;2.67;;;;;;;12.78;65.57;101295.38;5038472;28;20025;-72
2021/10/19 05:03:02;;;;;;;3.22;2.92;;;;;;;12.79;65.46;101297.84;5055985;28;20033;-71
2021/10/19 05:05:28;;;;;;;3.33;3.10;;;;;;;12.76;65.14;101292.13;5038325;28;20120;-71
2021/10/19 05:07:56;;;;;;;4.07;2.95;;;;;;;12.67;65.51;101300.63;5038259;28;20085;-71
2021/10/19 05:10:22;;;;;;;3.22;2.90;;;;;;;12.62;66.01;101295.28;5038301;28;20029;-72
2021/10/19 05:12:48;;;;;;;3.67;3.35;;;;;;;12.67;66.83;101295.03;5038222;28;20033;-71
2021/10/19 05:15:17;;;;;;;5.03;2.40;;;;;;;12.70;65.96;101294.34;5045436;28;20135;-71
2021/10/19 05:17:46;;;;;;;4.03;2.95;;;;;;;12.69;65.92;101294.72;5055777;28;20044;-71
2021/10/19 05:20:14;;;;;;;3.65;3.25;;;;;;;12.70;65.71;101299.13;5055164;28;20033;-71
2021/10/19 05:22:40;;;;;;;4.90;3.15;;;;;;;12.74;65.60;101306.44;5054562;28;20029;-71
2021/10/19 05:25:10;;;;;;;3.33;3.03;;;;;;;12.67;64.88;101302.59;5054645;28;20139;-71
2021/10/19 05:27:38;;;;;;;3.63;2.88;;;;;;;12.73;65.22;101304.84;5055855;28;20048;-71
2021/10/19 05:30:04;;;;;;;4.55;3.10;;;;;;;13.02;64.51;101312.09;5054711;28;20485;-71
2021/10/19 05:32:33;;;;;;;3.53;2.80;;;;;;;13.57;62.53;101310.56;5054723;28;20116;-70
2021/10/19 05:34:59;;;;;;;3.30;3.00;;;;;;;14.12;60.90;101314.50;5054362;28;20090;-71
2021/10/19 05:37:26;;;;;;;3.75;3.45;;;;;;;14.66;59.55;101310.28;5054293;28;20029;-71
2021/10/19 05:39:51;;;;;;;5.05;3.92;;;;;;;15.20;57.12;101315.91;5054157;28;20125;-71
2021/10/19 05:42:20;;;;;;;3.40;3.20;;;;;;;15.71;55.49;101324.25;5053537;28;20107;-71
2021/10/19 05:44:45;;;;;;;5.35;3.47;;;;;;;16.17;54.08;101326.31;5054535;28;20417;-71
2021/10/19 05:47:14;;;;;;;3.60;3.30;;;;;;;16.60;52.23;101321.41;5053882;28;20037;-71
2021/10/19 05:49:42;;;;;;;8.15;3.40;;;;;;;17.02;50.76;101332.56;5053809;28;20116;-72
2021/10/19 05:52:08;;;;;;;3.42;3.20;;;;;;;17.51;49.84;101326.78;5053892;28;20029;-71
2021/10/19 05:54:39;;;;;;;3.35;3.08;;;;;;;18.00;48.75;101331.44;5053814;28;20036;-71
2021/10/19 05:57:05;;;;;;;4.38;3.13;;;;;;;18.49;47.61;101329.50;5053819;28;20025;-72
2021/10/19 05:59:36;;;;;;;3.08;2.83;;;;;;;18.89;45.91;101342.72;5053548;28;20040;-69
2021/10/19 06:02:03;;;;;;;4.55;2.85;;;;;;;19.31;45.32;101342.16;5053814;28;20098;-69
2021/10/19 06:04:34;;;;;;;3.20;2.80;;;;;;;19.67;43.97;101336.75;5054077;28;20048;-70
2021/10/19 06:07:01;;;;;;;2.58;2.38;;;;;;;20.04;43.24;101346.94;5053345;28;20131;-70
2021/10/19 06:09:31;;;;;;;4.22;2.83;;;;;;;20.27;42.26;101341.72;5053879;28;20119;-70
2021/10/19 06:11:56;;;;;;;3.08;2.78;;;;;;;20.65;41.04;101345.03;5053702;28;20360;-69
2021/10/19 06:14:23;;;;;;;3.20;2.58;;;;;;;20.97;40.90;101355.50;5049279;28;20132;-70
2021/10/19 06:16:50;;;;;;;2.60;2.40;;;;;;;21.26;40.33;101362.75;5016961;28;20068;-69
2021/10/19 06:19:19;;;;;;;2.72;2.53;;;;;;;21.33;39.73;101368.41;5017269;28;20455;-69
2021/10/19 06:21:44;;;;;;;3.25;2.60;;;;;;;21.75;39.47;101365.84;5016705;28;20029;-69
2021/10/19 06:24:10;;;;;;;4.13;2.47;;;;;;;22.15;38.50;101361.59;5017336;28;20029;-70
2021/10/19 06:26:36;;;;;;;3.67;2.95;;;;;;;22.32;38.54;101369.22;5016179;28;20490;-70
2021/10/19 06:29:07;;;;;;;4.38;2.28;;;;;;;22.72;37.39;101379.03;5016578;28;20088;-70
2021/10/19 06:31:34;;;;;;;2.70;2.50;;;;;;;22.99;36.14;101382.06;5012321;28;20044;-71
2021/10/19 06:34:04;;;;;;;2.75;2.47;;;;;;;23.22;35.98;101389.13;5016742;28;20037;-70
2021/10/19 06:36:35;;;;;;;2.50;2.30;;;;;;;23.46;35.37;101390.91;5016514;28;20033;-70
2021/10/19 06:39:04;;;;;;;2.83;2.35;;;;;;;23.67;35.42;101386.25;5016531;28;20033;-70
2021/10/19 06:41:33;;;;;;;3.92;2.75;;;;;;;23.95;34.76;101387.94;5016331;28;20025;-70
2021/10/19 06:44:01;;;;;;;2.78;2.58;;;;;;;23.54;33.93;101400.16;5016111;28;20033;-70
2021/10/19 06:46:27;;;;;;;2.17;1.98;;;;;;;23.41;35.06;101408.41;5016351;28;20368;-71
2021/10/19 06:48:56;;;;;;;2.22;1.85;;;;;;;22.24;34.92;101404.47;5016314;28;20026;-71
2021/10/19 06:51:27;;;;;;;2.35;2.10;;;;;;;22.00;36.29;101406.22;5015908;28;20033;-71
2021/10/19 06:53:56;;;;;;;2.50;2.28;;;;;;;21.98;35.80;101402.97;5015794;28;20026;-71
2021/10/19 06:56:27;;;;;;;5.13;2.55;;;;;;;21.65;36.75;101412.81;5015772;28;20080;-70
2021/10/19 06:58:58;;;;;;;2.70;2.50;;;;;;;22.15;36.80;101406.97;5016289;28;20033;-71
2021/10/19 07:01:30;;;;;;;2.60;2.40;;;;;;;22.00;36.25;101419.53;5016494;28;20029;-71
2021/10/19 07:03:57;;;;;;;3.53;2.58;;;;;;;21.82;36.61;101417.59;5015985;28;20098;-71
2021/10/19 07:06:24;;;;;;;2.20;2.10;;;;;;;22.28;35.98;101416.63;5015819;28;20040;-70
2021/10/19 07:08:53;;;;;;;2.40;2.20;;;;;;;22.65;35.47;101418.00;5016213;28;20471;-70
2021/10/19 07:11:26;;;;;;;4.22;2.25;;;;;;;23.11;34.41;101433.88;5015617;28;20026;-72
2021/10/19 07:13:53;;;;;;;4.43;2.43;;;;;;;23.96;33.75;101426.50;5033426;28;20037;-72
2021/10/19 07:16:21;;;;;;;2.50;2.10;;;;;;;24.07;32.54;101438.53;5050893;28;20389;-71
2021/10/19 07:18:47;;;;;;;1.95;1.85;;;;;;;24.60;32.71;101436.19;5051968;28;20029;-71
2021/10/19 07:21:15;;;;;;;1.80;1.70;;;;;;;24.94;31.95;101431.19;5052113;28;20067;-71
2021/10/19 07:23:46;;;;;;;2.28;2.08;;;;;;;24.70;31.86;101440.94;5051988;28;20359;-72
2021/10/19 07:26:15;;;;;;;2.33;2.10;;;;;;;25.30;30.46;101434.25;5052080;28;20048;-71
2021/10/19 07:28:44;;;;;;;1.70;1.60;;;;;;;25.34;30.15;101439.88;5052612;28;20123;-71
2021/10/19 07:31:12;;;;;;;2.25;1.90;;;;;;;25.43;29.12;101436.47;5051577;28;20061;-71
2021/10/19 07:33:40;;;;;;;2.22;1.85;;;;;;;25.42;30.37;101438.50;5052889;28;20025;-71
2021/10/19 07:36:12;;;;;;;1.77;1.67;;;;;;;26.08;29.65;101443.31;5051330;28;20037;-71
2021/10/19 07:38:38;;;;;;;2.08;1.75;;;;;;;25.63;29.84;101445.06;5051787;28;20090;-71
2021/10/19 07:41:06;;;;;;;1.70;1.60;;;;;;;25.72;28.99;101442.41;5052155;28;20025;-71
2021/10/19 07:43:37;;;;;;;2.03;1.92;;;;;;;25.60;29.04;101441.81;5051887;28;20458;-71
2021/10/19 07:46:05;;;;;;;2.25;2.00;;;;;;;26.25;28.20;101451.94;5051745;28;20037;-71
2021/10/19 07:48:36;;;;;;;2.20;2.00;;;;;;;25.06;29.26;101453.38;5052397;28;20064;-71
2021/10/19 07:51:02;;;;;;;4.97;2.30;;;;;;;25.36;29.03;101448.00;5052479;28;20420;-71
2021/10/19 07:53:34;;;;;;;4.55;2.40;;;;;;;24.64;30.14;101452.00;5035668;28;20454;-71
2021/10/19 07:55:59;;;;;;;2.85;2.08;;;;;;;24.65;29.69;101456.44;5051617;28;20032;-71
2021/10/19 07:58:28;;;;;;;2.17;1.88;;;;;;;24.22;30.38;101447.69;5051692;28;20040;-71
2021/10/19 08:00:56;;;;;;;2.25;2.05;;;;;;;24.32;30.59;101455.25;5051616;28;20044;-70
2021/10/19 08:03:22;;;;;;;4.10;2.53;;;;;;;24.08;31.48;101459.25;5051687;28;20083;-71
2021/10/19 08:05:50;;;;;;;2.58;2.30;;;;;;;24.12;31.76;101463.63;5054781;28;20037;-71
2021/10/19 08:08:19;;;;;;;2.72;2.28;;;;;;;24.70;30.70;101453.09;5055753;28;20057;-71
2021/10/19 08:10:49;;;;;;;2.42;2.22;;;;;;;24.55;30.83;101458.22;5057304;28;20524;-71
2021/10/19 08:13:17;;;;;;;3.22;2.25;;;;;;;24.17;31.27;101465.22;5055608;28;20029;-71
2021/10/19 08:15:43;;;;;;;2.92;2.50;;;;;;;23.64;32.09;101466.66;5029396;28;20089;-71
2021/10/19 08:18:09;;;;;;;3.45;2.30;;;;;;;24.05;31.75;101458.84;5018840;28;20443;-71
2021/10/19 08:20:38;;;;;;;2.25;2.05;;;;;;;24.22;31.42;101465.53;5018892;28;20025;-70
2021/10/19 08:23:10;;;;;;;5.10;2.40;;;;;;;23.92;31.74;101449.28;5018678;28;20026;-70
2021/10/19 08:25:38;;;;;;;2.58;2.38;;;;;;;24.27;31.50;101469.97;5019574;28;20116;-71
2021/10/19 08:28:04;;;;;;;2.67;2.33;;;;;;;24.71;31.03;101470.97;5036591;28;20080;-70
2021/10/19 08:30:30;;;;;;;2.00;1.90;;;;;;;25.00;30.31;101459.97;5018505;28;20029;-70
2021/10/19 08:32:58;;;;;;;2.40;2.20;;;;;;;25.10;30.21;101458.22;5018649;28;20081;-70
2021/10/19 08:35:24;;;;;;;2.95;1.80;;;;;;;24.88;30.43;101463.44;5036235;28;20029;-70
2021/10/19 08:37:54;;;;;;;2.90;2.30;;;;;;;25.63;29.60;101462.94;5018126;28;20040;-71
2021/10/19 08:40:20;;;;;;;3.00;2.17;;;;;;;25.55;29.23;101456.56;5018919;28;20148;-71
2021/10/19 08:42:52;;;;;;;2.55;2.35;;;;;;;26.07;29.58;101467.38;5018504;28;20026;-71
2021/10/19 08:45:21;;;;;;;2.47;2.20;;;;;;;25.84;29.50;101462.56;5018480;28;20025;-71
2021/10/19 08:47:52;;;;;;;2.70;2.40;;;;;;;26.23;29.38;101463.00;5018104;28;20032;-71
2021/10/19 08:50:21;;;;;;;2.28;2.08;;;;;;;26.47;28.71;101458.78;5018385;28;20029;-71
2021/10/19 08:52:47;;;;;;;2.25;2.05;;;;;;;26.79;27.57;101468.66;5018431;28;20395;-72
2021/10/19 08:55:14;;;;;;;4.63;3.10;;;;;;;25.86;28.72;101470.66;5018711;28;20114;-71
2021/10/19 08:57:42;;;;;;;2.85;2.42;;;;;;;25.65;29.09;101456.81;5018190;28;20025;-71
2021/10/19 09:00:11;;;;;;;5.15;2.35;;;;;;;26.30;28.50;101460.78;5018621;28;20124;-71
2021/10/19 09:02:45;;;;;;;2.95;2.22;;;;;;;27.00;27.64;101465.28;5018008;28;20076;-71
2021/10/19 09:05:22;;;;;;;2.95;2.08;;;;;;;27.31;27.17;101474.31;5018101;28;20116;-71
2021/10/19 09:08:09;;;;;;;2.88;2.28;;;;;;;27.91;26.22;101468.22;5018212;28;20526;-71
2021/10/19 09:10:42;;;;;;;2.22;1.92;;;;;;;27.56;26.66;101465.09;5018084;28;20067;-71
2021/10/19 09:13:17;;;;;;;1.95;1.85;;;;;;;27.88;26.65;101463.44;5018214;28;20021;-71
2021/10/19 09:15:46;;;;;;;2.85;2.58;;;;;;;28.36;25.59;101473.88;5016949;28;20566;-71
2021/10/19 09:18:20;;;;;;;2.95;2.47;;;;;;;28.41;25.54;101466.78;5018003;28;20060;-71
2021/10/19 09:20:58;;;;;;;3.53;2.88;;;;;;;27.27;26.75;101442.22;5035822;28;20143;-72
2021/10/19 09:23:27;;;;;;;3.15;2.45;;;;;;;27.28;26.69;101468.72;5017824;28;20119;-70
2021/10/19 09:25:54;;;;;;;5.30;2.85;;;;;;;27.25;26.33;101469.59;5017135;28;20029;-70
2021/10/19 09:28:39;;;;;;;3.55;2.78;;;;;;;26.94;26.89;101464.22;5018394;28;20490;-71
2021/10/19 09:31:08;;;;;;;5.70;3.20;;;;;;;27.28;27.04;101471.59;5018496;28;20038;-72
2021/10/19 09:33:35;;;;;;;3.13;2.83;;;;;;;27.09;27.09;101459.00;5017571;28;20060;-71
2021/10/19 09:36:03;;;;;;;3.40;3.10;;;;;;;27.15;27.27;101463.72;5018132;28;20026;-72
2021/10/19 09:38:29;;;;;;;3.45;3.03;;;;;;;26.84;27.99;101465.28;5017503;28;20021;-72
2021/10/19 09:41:00;;;;;;;3.72;2.78;;;;;;;27.00;27.40;101468.13;5017306;28;20391;-72
2021/10/19 09:43:32;;;;;;;3.72;2.70;;;;;;;27.37;26.82;101466.00;5017802;28;20056;-72
2021/10/19 09:46:01;;;;;;;2.78;2.22;;;;;;;27.93;25.83;101474.31;5017352;28;20026;-72
2021/10/19 09:48:34;;;;;;;2.90;2.60;;;;;;;27.42;26.70;101465.47;5017536;28;20091;-71
2021/10/19 09:51:01;;;;;;;2.55;2.35;;;;;;;27.54;25.99;101461.91;5017079;28;20039;-71
2021/10/19 09:53:28;;;;;;;2.70;2.50;;;;;;;27.79;26.33;101466.13;5016980;28;20486;-71
2021/10/19 09:55:56;;;;;;;4.00;2.50;;;;;;;28.11;26.08;101471.72;5034840;28;20033;-71
2021/10/19 09:58:25;;;;;;;5.22;3.33;;;;;;;27.34;26.85;101469.78;5016918;28;20083;-71
2021/10/19 10:00:55;;;;;;;2.63;2.42;;;;;;;27.52;27.32;101472.97;5016904;28;20029;-71
2021/10/19 10:03:22;;;;;;;3.58;2.40;;;;;;;27.88;26.63;101475.66;5017171;28;20029;-71
2021/10/19 10:05:47;;;;;;;3.58;2.58;;;;;;;27.32;27.38;101469.41;5017104;28;20026;-72
2021/10/19 10:08:24;;;;;;;2.70;2.50;;;;;;;27.70;26.95;101463.94;5017146;28;20032;-71
2021/10/19 10:10:56;;;;;;;4.43;2.65;;;;;;;28.34;26.06;101472.75;5017220;28;20542;-71
2021/10/19 10:13:25;;;;;;;2.25;2.05;;;;;;;28.01;26.50;101464.25;5017171;28;20053;-71
2021/10/19 10:15:53;;;;;;;2.10;1.95;;;;;;;28.67;25.48;101461.88;5016715;28;20057;-71
2021/10/19 10:18:33;;;;;;;2.80;2.60;;;;;;;28.44;25.42;101460.13;5016827;28;20028;-72
2021/10/19 10:21:13;;;;;;;1.77;1.67;;;;;;;28.63;25.78;101459.13;5016691;28;20025;-71
2021/10/19 10:23:43;;;;;;;1.95;1.85;;;;;;;28.10;26.28;101473.00;5017154;28;20017;-71
2021/10/19 10:26:30;;;;;;;3.13;1.80;;;;;;;28.30;25.96;101460.56;5017445;28;20034;-72
2021/10/19 10:29:10;;;;;;;2.85;1.85;;;;;;;27.98;26.71;101456.59;5033934;28;20032;-71
2021/10/19 10:31:50;;;;;;;2.78;2.13;;;;;;;28.11;26.37;101442.31;5016435;28;20071;-74
2021/10/19 10:34:28;;;;;;;2.08;1.98;;;;;;;27.33;27.23;101448.19;5016352;28;20025;-74
2021/10/19 10:37:07;;;;;;;3.20;2.08;;;;;;;26.77;28.04;101448.31;5016242;28;20120;-74
2021/10/19 10:39:36;;;;;;;2.28;2.08;;;;;;;26.84;28.23;101445.28;5033773;28;20036;-73
2021/10/19 10:42:12;;;;;;;2.10;1.92;;;;;;;27.05;28.15;101438.25;5016481;28;20494;-73
2021/10/19 10:44:42;;;;;;;2.45;2.25;;;;;;;27.10;27.53;101444.25;5016118;28;20025;-73
2021/10/19 10:47:17;;;;;;;3.75;2.00;;;;;;;26.47;28.74;101447.38;4996154;28;20432;-73
2021/10/19 10:49:45;;;;;;;2.35;1.95;;;;;;;27.26;28.20;101440.56;5033338;28;20067;-73
2021/10/19 10:52:16;;;;;;;2.50;2.28;;;;;;;27.01;28.79;101435.50;5015848;28;20174;-73
2021/10/19 10:54:57;;;;;;;1.90;1.80;;;;;;;27.07;29.26;101445.16;5015769;28;20148;-73
2021/10/19 10:57:23;;;;;;;2.78;2.35;;;;;;;26.93;29.33;101444.69;5015780;28;20498;-73
2021/10/19 10:59:56;;;;;;;2.30;2.10;;;;;;;26.82;29.88;101439.22;5016084;28;20475;-73
2021/10/19 11:02:25;;;;;;;2.88;2.20;;;;;;;26.74;29.48;101435.75;5015788;28;20025;-73
2021/10/19 11:04:55;;;;;;;3.28;2.20;;;;;;;26.61;30.70;101427.06;5015806;28;20037;-73
2021/10/19 11:07:35;;;;;;;3.65;2.38;;;;;;;26.82;30.61;101424.97;5015175;28;20120;-74
2021/10/19 11:10:09;;;;;;;2.47;2.28;;;;;;;26.98;29.97;101424.97;5015888;28;20040;-73
2021/10/19 11:12:39;;;;;;;2.22;2.03;;;;;;;27.25;29.66;101418.19;5015732;28;20044;-72
2021/10/19 11:15:14;;;;;;;2.45;2.17;;;;;;;27.12;30.00;101409.53;5030554;28;20487;-73
2021/10/19 11:17:50;;;;;;;2.38;2.17;;;;;;;27.25;29.82;101409.59;5053617;28;20356;-73
2021/10/19 11:20:20;;;;;;;2.25;2.15;;;;;;;26.63;30.34;101415.22;5052380;28;20037;-74
2021/10/19 11:22:49;;;;;;;2.03;1.70;;;;;;;26.41;31.09;101411.22;5052846;28;20024;-74
2021/10/19 11:25:16;;;;;;;5.47;1.95;;;;;;;26.46;30.83;101411.53;5051947;28;20086;-73
2021/10/19 11:27:43;;;;;;;3.10;2.15;;;;;;;26.08;31.73;101403.41;5053808;28;20095;-74
2021/10/19 11:30:11;;;;;;;2.50;1.73;;;;;;;25.99;31.59;101405.22;5052000;28;20029;-74